sensor_id;sensor_type;location;lat;lon;timestamp;pressure;altitude;pressure_sealevel;temperature;humidity
7335;BME280;3708;42.632;23.378;2023-01-28T00:00:11;93606.47;;;0.89;70.34
7335;BME280;3708;42.632;23.378;2023-01-28T00:02:37;93617.56;;;1.13;69.43
7335;BME280;3708;42.632;23.378;2023-01-28T00:05:05;93613.88;;;1.19;69.40
7335;BME280;3708;42.632;23.378;2023-01-28T00:07:32;93618.88;;;1.10;68.80
7335;BME280;3708;42.632;23.378;2023-01-28T00:10:00;93618.72;;;1.25;69.00
7335;BME280;3708;42.632;23.378;2023-01-28T00:12:28;93623.84;;;1.07;69.54
7335;BME280;3708;42.632;23.378;2023-01-28T00:14:55;93640.06;;;0.84;70.56
7335;BME280;3708;42.632;23.378;2023-01-28T00:17:21;93633.00;;;0.94;68.87
7335;BME280;3708;42.632;23.378;2023-01-28T00:19:48;93633.44;;;1.01;69.46
7335;BME280;3708;42.632;23.378;2023-01-28T00:22:15;93639.94;;;1.41;68.22
7335;BME280;3708;42.632;23.378;2023-01-28T00:24:42;93628.91;;;1.59;67.74
7335;BME280;3708;42.632;23.378;2023-01-28T00:27:10;93641.06;;;1.35;67.77
7335;BME280;3708;42.632;23.378;2023-01-28T00:29:37;93643.81;;;0.96;68.92
7335;BME280;3708;42.632;23.378;2023-01-28T00:32:04;93643.50;;;0.98;69.22
7335;BME280;3708;42.632;23.378;2023-01-28T00:34:31;93647.22;;;1.58;68.21
7335;BME280;3708;42.632;23.378;2023-01-28T00:36:58;93645.22;;;1.54;67.15
7335;BME280;3708;42.632;23.378;2023-01-28T00:39:26;93635.63;;;1.36;67.77
7335;BME280;3708;42.632;23.378;2023-01-28T00:41:53;93631.69;;;1.63;68.20
7335;BME280;3708;42.632;23.378;2023-01-28T00:44:21;93651.25;;;1.45;67.24
7335;BME280;3708;42.632;23.378;2023-01-28T00:46:48;93646.81;;;1.03;68.30
7335;BME280;3708;42.632;23.378;2023-01-28T00:49:15;93653.66;;;1.36;67.38
7335;BME280;3708;42.632;23.378;2023-01-28T00:51:42;93647.09;;;1.02;68.60
7335;BME280;3708;42.632;23.378;2023-01-28T00:54:10;93639.50;;;1.10;69.07
7335;BME280;3708;42.632;23.378;2023-01-28T00:56:37;93644.41;;;1.12;68.48
7335;BME280;3708;42.632;23.378;2023-01-28T00:59:04;93664.16;;;1.21;67.96
7335;BME280;3708;42.632;23.378;2023-01-28T01:01:32;93650.84;;;1.14;68.74
7335;BME280;3708;42.632;23.378;2023-01-28T01:03:59;93649.41;;;1.03;69.31
7335;BME280;3708;42.632;23.378;2023-01-28T01:06:29;93643.28;;;1.23;68.68
7335;BME280;3708;42.632;23.378;2023-01-28T01:08:56;93645.16;;;1.12;68.73
7335;BME280;3708;42.632;23.378;2023-01-28T01:11:23;93649.66;;;1.02;68.12
7335;BME280;3708;42.632;23.378;2023-01-28T01:13:51;93653.31;;;1.67;67.48
7335;BME280;3708;42.632;23.378;2023-01-28T01:16:19;93651.03;;;1.41;67.06
7335;BME280;3708;42.632;23.378;2023-01-28T01:18:52;93649.13;;;1.05;68.33
7335;BME280;3708;42.632;23.378;2023-01-28T01:21:21;93657.69;;;1.00;68.91
7335;BME280;3708;42.632;23.378;2023-01-28T01:23:48;93655.06;;;1.29;67.74
7335;BME280;3708;42.632;23.378;2023-01-28T01:26:15;93651.50;;;1.25;67.58
7335;BME280;3708;42.632;23.378;2023-01-28T01:28:42;93655.50;;;1.60;67.12
7335;BME280;3708;42.632;23.378;2023-01-28T01:31:11;93650.94;;;1.04;68.46
7335;BME280;3708;42.632;23.378;2023-01-28T01:33:39;93660.06;;;1.20;68.63
7335;BME280;3708;42.632;23.378;2023-01-28T01:36:10;93656.75;;;1.15;68.03
7335;BME280;3708;42.632;23.378;2023-01-28T01:38:37;93660.56;;;0.94;68.60
7335;BME280;3708;42.632;23.378;2023-01-28T01:41:06;93671.47;;;1.14;67.45
7335;BME280;3708;42.632;23.378;2023-01-28T01:43:47;93652.53;;;1.66;67.20
7335;BME280;3708;42.632;23.378;2023-01-28T01:46:16;93660.75;;;1.26;67.09
7335;BME280;3708;42.632;23.378;2023-01-28T01:48:45;93654.13;;;1.43;68.16
7335;BME280;3708;42.632;23.378;2023-01-28T01:51:17;93673.44;;;0.70;69.40
7335;BME280;3708;42.632;23.378;2023-01-28T01:53:48;93676.78;;;0.70;69.05
7335;BME280;3708;42.632;23.378;2023-01-28T01:56:21;93666.19;;;1.01;69.50
7335;BME280;3708;42.632;23.378;2023-01-28T01:58:51;93668.84;;;0.91;68.97
7335;BME280;3708;42.632;23.378;2023-01-28T02:01:20;93653.19;;;0.82;69.30
7335;BME280;3708;42.632;23.378;2023-01-28T02:03:52;93667.38;;;1.08;68.82
7335;BME280;3708;42.632;23.378;2023-01-28T02:06:22;93676.56;;;1.19;68.25
7335;BME280;3708;42.632;23.378;2023-01-28T02:08:52;93678.69;;;1.12;68.79
7335;BME280;3708;42.632;23.378;2023-01-28T02:11:19;93683.69;;;0.75;69.95
7335;BME280;3708;42.632;23.378;2023-01-28T02:13:50;93684.91;;;1.11;68.38
7335;BME280;3708;42.632;23.378;2023-01-28T02:16:19;93677.84;;;1.22;68.71
7335;BME280;3708;42.632;23.378;2023-01-28T02:18:47;93679.81;;;1.30;67.45
7335;BME280;3708;42.632;23.378;2023-01-28T02:21:29;93682.88;;;1.55;67.36
7335;BME280;3708;42.632;23.378;2023-01-28T02:27:17;93672.47;;;1.42;67.37
7335;BME280;3708;42.632;23.378;2023-01-28T02:29:54;93674.44;;;1.50;66.77
7335;BME280;3708;42.632;23.378;2023-01-28T02:32:26;93690.38;;;1.76;66.34
7335;BME280;3708;42.632;23.378;2023-01-28T02:35:00;93676.25;;;1.26;67.20
7335;BME280;3708;42.632;23.378;2023-01-28T02:37:33;93668.47;;;1.73;66.20
7335;BME280;3708;42.632;23.378;2023-01-28T02:40:06;93678.34;;;1.66;65.84
7335;BME280;3708;42.632;23.378;2023-01-28T02:42:36;93683.63;;;1.09;67.68
7335;BME280;3708;42.632;23.378;2023-01-28T02:45:11;93677.50;;;1.05;68.49
7335;BME280;3708;42.632;23.378;2023-01-28T02:47:41;93684.41;;;1.09;68.88
7335;BME280;3708;42.632;23.378;2023-01-28T02:50:22;93684.53;;;0.99;68.34
7335;BME280;3708;42.632;23.378;2023-01-28T02:52:59;93685.53;;;0.69;69.17
7335;BME280;3708;42.632;23.378;2023-01-28T02:55:52;93670.94;;;0.89;68.63
7335;BME280;3708;42.632;23.378;2023-01-28T02:58:28;93681.09;;;1.04;67.54
7335;BME280;3708;42.632;23.378;2023-01-28T03:01:07;93689.13;;;1.02;67.96
7335;BME280;3708;42.632;23.378;2023-01-28T03:03:43;93685.47;;;0.80;68.80
7335;BME280;3708;42.632;23.378;2023-01-28T03:06:14;93684.78;;;0.98;69.13
7335;BME280;3708;42.632;23.378;2023-01-28T03:08:45;93685.81;;;0.97;68.63
7335;BME280;3708;42.632;23.378;2023-01-28T03:11:39;93684.78;;;0.98;68.64
7335;BME280;3708;42.632;23.378;2023-01-28T03:14:25;93681.06;;;1.56;67.06
7335;BME280;3708;42.632;23.378;2023-01-28T03:17:16;93681.19;;;1.22;68.02
7335;BME280;3708;42.632;23.378;2023-01-28T03:20:02;93692.59;;;0.88;68.56
7335;BME280;3708;42.632;23.378;2023-01-28T03:22:50;93690.00;;;0.93;68.83
7335;BME280;3708;42.632;23.378;2023-01-28T03:25:39;93688.63;;;0.71;69.57
7335;BME280;3708;42.632;23.378;2023-01-28T03:28:27;93686.25;;;1.04;68.03
7335;BME280;3708;42.632;23.378;2023-01-28T03:31:15;93699.56;;;1.16;67.94
7335;BME280;3708;42.632;23.378;2023-01-28T03:34:02;93695.63;;;0.66;69.02
7335;BME280;3708;42.632;23.378;2023-01-28T03:36:48;93693.19;;;0.80;68.68
7335;BME280;3708;42.632;23.378;2023-01-28T03:39:20;93698.75;;;0.92;69.30
7335;BME280;3708;42.632;23.378;2023-01-28T03:41:59;93696.75;;;1.12;67.67
7335;BME280;3708;42.632;23.378;2023-01-28T03:44:26;93689.28;;;0.82;68.63
7335;BME280;3708;42.632;23.378;2023-01-28T03:47:10;93700.03;;;0.60;69.54
7335;BME280;3708;42.632;23.378;2023-01-28T03:49:40;93702.84;;;1.21;68.71
7335;BME280;3708;42.632;23.378;2023-01-28T03:52:07;93711.41;;;1.64;65.90
7335;BME280;3708;42.632;23.378;2023-01-28T03:54:34;93694.59;;;0.96;68.57
7335;BME280;3708;42.632;23.378;2023-01-28T03:57:01;93699.47;;;1.26;67.70
7335;BME280;3708;42.632;23.378;2023-01-28T03:59:27;93712.88;;;0.99;67.87
7335;BME280;3708;42.632;23.378;2023-01-28T04:01:54;93707.97;;;0.98;68.12
7335;BME280;3708;42.632;23.378;2023-01-28T04:04:21;93705.22;;;1.65;66.19
7335;BME280;3708;42.632;23.378;2023-01-28T04:06:53;93711.41;;;0.59;68.49
7335;BME280;3708;42.632;23.378;2023-01-28T04:09:21;93710.91;;;0.57;68.58
7335;BME280;3708;42.632;23.378;2023-01-28T04:11:48;93707.25;;;0.63;68.71
7335;BME280;3708;42.632;23.378;2023-01-28T04:14:16;93717.53;;;0.68;68.69
7335;BME280;3708;42.632;23.378;2023-01-28T04:16:43;93709.63;;;0.55;69.06
7335;BME280;3708;42.632;23.378;2023-01-28T04:19:10;93718.47;;;0.44;69.48
7335;BME280;3708;42.632;23.378;2023-01-28T04:21:38;93720.09;;;0.68;67.69
7335;BME280;3708;42.632;23.378;2023-01-28T04:24:06;93727.97;;;0.82;68.94
7335;BME280;3708;42.632;23.378;2023-01-28T04:26:33;93723.44;;;0.98;66.92
7335;BME280;3708;42.632;23.378;2023-01-28T04:29:00;93740.28;;;1.19;66.80
7335;BME280;3708;42.632;23.378;2023-01-28T04:31:27;93729.88;;;1.29;66.81
7335;BME280;3708;42.632;23.378;2023-01-28T04:33:54;93727.94;;;0.87;66.90
7335;BME280;3708;42.632;23.378;2023-01-28T04:36:21;93723.44;;;0.98;67.83
7335;BME280;3708;42.632;23.378;2023-01-28T04:38:47;93732.44;;;0.33;69.40
7335;BME280;3708;42.632;23.378;2023-01-28T04:41:16;93748.56;;;0.87;67.76
7335;BME280;3708;42.632;23.378;2023-01-28T04:43:43;93741.47;;;1.03;66.90
7335;BME280;3708;42.632;23.378;2023-01-28T04:46:10;93749.16;;;1.08;67.64
7335;BME280;3708;42.632;23.378;2023-01-28T04:48:36;93751.72;;;0.40;68.08
7335;BME280;3708;42.632;23.378;2023-01-28T04:51:04;93749.44;;;0.72;67.92
7335;BME280;3708;42.632;23.378;2023-01-28T04:53:30;93750.69;;;0.41;69.75
7335;BME280;3708;42.632;23.378;2023-01-28T04:55:57;93752.31;;;1.00;68.12
7335;BME280;3708;42.632;23.378;2023-01-28T04:58:26;93749.22;;;0.98;68.50
7335;BME280;3708;42.632;23.378;2023-01-28T05:00:54;93756.84;;;0.45;68.58
7335;BME280;3708;42.632;23.378;2023-01-28T05:03:21;93762.69;;;0.12;70.98
7335;BME280;3708;42.632;23.378;2023-01-28T05:05:49;93755.63;;;0.71;68.78
7335;BME280;3708;42.632;23.378;2023-01-28T05:08:16;93755.31;;;1.12;68.48
7335;BME280;3708;42.632;23.378;2023-01-28T05:10:43;93765.72;;;0.68;69.07
7335;BME280;3708;42.632;23.378;2023-01-28T05:13:09;93767.13;;;0.50;69.26
7335;BME280;3708;42.632;23.378;2023-01-28T05:15:38;93768.72;;;0.41;69.33
7335;BME280;3708;42.632;23.378;2023-01-28T05:18:05;93771.44;;;0.16;71.02
7335;BME280;3708;42.632;23.378;2023-01-28T05:20:32;93775.25;;;0.67;69.91
7335;BME280;3708;42.632;23.378;2023-01-28T05:22:59;93776.81;;;1.31;67.63
7335;BME280;3708;42.632;23.378;2023-01-28T05:25:25;93787.81;;;1.41;67.23
7335;BME280;3708;42.632;23.378;2023-01-28T05:27:53;93780.91;;;0.69;68.30
7335;BME280;3708;42.632;23.378;2023-01-28T05:30:20;93781.91;;;0.73;68.39
7335;BME280;3708;42.632;23.378;2023-01-28T05:32:53;93795.59;;;1.08;67.42
7335;BME280;3708;42.632;23.378;2023-01-28T05:35:21;93780.78;;;0.51;68.83
7335;BME280;3708;42.632;23.378;2023-01-28T05:37:48;93789.84;;;1.16;67.36
7335;BME280;3708;42.632;23.378;2023-01-28T05:40:15;93788.41;;;1.00;67.32
7335;BME280;3708;42.632;23.378;2023-01-28T05:42:42;93788.97;;;0.97;67.40
7335;BME280;3708;42.632;23.378;2023-01-28T05:45:09;93780.47;;;1.25;66.42
7335;BME280;3708;42.632;23.378;2023-01-28T05:47:36;93782.69;;;0.74;67.43
7335;BME280;3708;42.632;23.378;2023-01-28T05:50:05;93795.28;;;0.75;67.65
7335;BME280;3708;42.632;23.378;2023-01-28T05:52:32;93781.28;;;0.53;68.56
7335;BME280;3708;42.632;23.378;2023-01-28T05:54:59;93787.34;;;0.72;67.54
7335;BME280;3708;42.632;23.378;2023-01-28T05:57:27;93791.84;;;0.51;68.21
7335;BME280;3708;42.632;23.378;2023-01-28T05:59:54;93810.69;;;0.47;68.01
7335;BME280;3708;42.632;23.378;2023-01-28T06:02:21;93797.25;;;0.55;67.87
7335;BME280;3708;42.632;23.378;2023-01-28T06:04:47;93813.72;;;0.05;69.42
7335;BME280;3708;42.632;23.378;2023-01-28T06:07:17;93813.84;;;1.16;67.20
7335;BME280;3708;42.632;23.378;2023-01-28T06:09:45;93813.59;;;0.74;67.57
7335;BME280;3708;42.632;23.378;2023-01-28T06:12:12;93824.78;;;0.59;68.54
7335;BME280;3708;42.632;23.378;2023-01-28T06:14:42;93821.16;;;0.60;68.01
7335;BME280;3708;42.632;23.378;2023-01-28T06:17:08;93821.38;;;0.69;67.93
7335;BME280;3708;42.632;23.378;2023-01-28T06:19:35;93830.81;;;0.40;68.61
7335;BME280;3708;42.632;23.378;2023-01-28T06:22:02;93836.59;;;0.70;67.89
7335;BME280;3708;42.632;23.378;2023-01-28T06:24:30;93848.06;;;0.39;68.61
7335;BME280;3708;42.632;23.378;2023-01-28T06:26:57;93838.09;;;0.76;67.45
7335;BME280;3708;42.632;23.378;2023-01-28T06:29:24;93857.97;;;0.17;69.01
7335;BME280;3708;42.632;23.378;2023-01-28T06:31:50;93847.22;;;0.98;68.29
7335;BME280;3708;42.632;23.378;2023-01-28T06:34:17;93848.63;;;0.80;67.29
7335;BME280;3708;42.632;23.378;2023-01-28T06:36:46;93841.91;;;0.84;67.21
7335;BME280;3708;42.632;23.378;2023-01-28T06:39:13;93848.41;;;0.71;68.18
7335;BME280;3708;42.632;23.378;2023-01-28T06:41:41;93851.59;;;0.97;67.14
7335;BME280;3708;42.632;23.378;2023-01-28T06:44:08;93855.84;;;1.17;66.86
7335;BME280;3708;42.632;23.378;2023-01-28T06:46:35;93863.84;;;1.49;66.01
7335;BME280;3708;42.632;23.378;2023-01-28T06:49:02;93873.41;;;1.77;65.14
7335;BME280;3708;42.632;23.378;2023-01-28T06:51:29;93864.56;;;0.87;67.29
7335;BME280;3708;42.632;23.378;2023-01-28T06:53:56;93866.41;;;1.20;66.34
7335;BME280;3708;42.632;23.378;2023-01-28T06:56:23;93867.63;;;0.94;67.73
7335;BME280;3708;42.632;23.378;2023-01-28T06:58:52;93883.91;;;0.90;67.67
7335;BME280;3708;42.632;23.378;2023-01-28T07:01:19;93873.41;;;0.76;67.26
7335;BME280;3708;42.632;23.378;2023-01-28T07:03:46;93873.53;;;0.56;68.31
7335;BME280;3708;42.632;23.378;2023-01-28T07:06:13;93886.25;;;0.86;68.13
7335;BME280;3708;42.632;23.378;2023-01-28T07:08:40;93889.69;;;1.10;67.42
7335;BME280;3708;42.632;23.378;2023-01-28T07:11:07;93893.56;;;0.64;67.93
7335;BME280;3708;42.632;23.378;2023-01-28T07:13:34;93899.88;;;0.87;67.96
7335;BME280;3708;42.632;23.378;2023-01-28T07:16:03;93900.31;;;0.55;68.21
7335;BME280;3708;42.632;23.378;2023-01-28T07:18:30;93905.38;;;0.75;68.07
7335;BME280;3708;42.632;23.378;2023-01-28T07:20:57;93916.44;;;0.81;68.62
7335;BME280;3708;42.632;23.378;2023-01-28T07:23:24;93919.50;;;0.88;67.80
7335;BME280;3708;42.632;23.378;2023-01-28T07:25:51;93903.19;;;0.97;66.43
7335;BME280;3708;42.632;23.378;2023-01-28T07:28:18;93916.72;;;1.57;65.84
7335;BME280;3708;42.632;23.378;2023-01-28T07:30:48;93918.19;;;0.90;67.51
7335;BME280;3708;42.632;23.378;2023-01-28T07:33:16;93936.19;;;0.95;67.39
7335;BME280;3708;42.632;23.378;2023-01-28T07:35:44;93932.59;;;0.96;67.70
7335;BME280;3708;42.632;23.378;2023-01-28T07:38:12;93929.72;;;1.08;66.93
7335;BME280;3708;42.632;23.378;2023-01-28T07:40:39;93920.56;;;0.82;67.19
7335;BME280;3708;42.632;23.378;2023-01-28T07:43:08;93928.66;;;1.04;67.16
7335;BME280;3708;42.632;23.378;2023-01-28T07:45:35;93938.69;;;0.61;66.94
7335;BME280;3708;42.632;23.378;2023-01-28T07:48:04;93936.63;;;0.63;68.05
7335;BME280;3708;42.632;23.378;2023-01-28T07:50:34;93936.47;;;0.99;66.68
7335;BME280;3708;42.632;23.378;2023-01-28T07:53:02;93949.84;;;1.01;66.51
7335;BME280;3708;42.632;23.378;2023-01-28T07:55:29;93931.75;;;0.52;67.55
7335;BME280;3708;42.632;23.378;2023-01-28T07:57:58;93940.94;;;1.22;66.34
7335;BME280;3708;42.632;23.378;2023-01-28T08:00:27;93943.63;;;1.45;65.78
7335;BME280;3708;42.632;23.378;2023-01-28T08:02:55;93941.34;;;1.39;65.75
7335;BME280;3708;42.632;23.378;2023-01-28T08:05:22;93939.78;;;1.43;66.15
7335;BME280;3708;42.632;23.378;2023-01-28T08:07:52;93948.22;;;1.87;64.14
7335;BME280;3708;42.632;23.378;2023-01-28T08:10:20;93947.88;;;1.31;65.63
7335;BME280;3708;42.632;23.378;2023-01-28T08:12:51;93947.22;;;1.11;65.90
7335;BME280;3708;42.632;23.378;2023-01-28T08:15:18;93947.53;;;0.99;66.55
7335;BME280;3708;42.632;23.378;2023-01-28T08:17:45;93944.84;;;1.19;67.28
7335;BME280;3708;42.632;23.378;2023-01-28T08:20:12;93954.84;;;1.31;65.09
7335;BME280;3708;42.632;23.378;2023-01-28T08:22:39;93960.97;;;1.40;65.05
7335;BME280;3708;42.632;23.378;2023-01-28T08:25:08;93957.78;;;1.53;65.07
7335;BME280;3708;42.632;23.378;2023-01-28T08:27:35;93952.47;;;1.39;65.83
7335;BME280;3708;42.632;23.378;2023-01-28T08:30:04;93964.69;;;1.58;64.37
7335;BME280;3708;42.632;23.378;2023-01-28T08:32:33;93962.41;;;1.90;64.00
7335;BME280;3708;42.632;23.378;2023-01-28T08:35:00;93960.00;;;1.98;63.55
7335;BME280;3708;42.632;23.378;2023-01-28T08:37:27;93955.06;;;2.02;63.88
7335;BME280;3708;42.632;23.378;2023-01-28T08:39:54;93970.63;;;1.24;65.35
7335;BME280;3708;42.632;23.378;2023-01-28T08:42:22;93946.41;;;1.54;65.68
7335;BME280;3708;42.632;23.378;2023-01-28T08:44:49;93955.66;;;1.60;64.39
7335;BME280;3708;42.632;23.378;2023-01-28T08:47:16;93964.31;;;1.40;65.82
7335;BME280;3708;42.632;23.378;2023-01-28T08:49:43;93966.81;;;1.89;64.08
7335;BME280;3708;42.632;23.378;2023-01-28T08:52:10;93958.72;;;1.67;63.94
7335;BME280;3708;42.632;23.378;2023-01-28T08:54:37;93950.88;;;1.77;64.32
7335;BME280;3708;42.632;23.378;2023-01-28T08:57:04;93964.63;;;2.01;63.61
7335;BME280;3708;42.632;23.378;2023-01-28T08:59:32;93957.03;;;1.81;63.26
7335;BME280;3708;42.632;23.378;2023-01-28T09:01:59;93954.84;;;1.65;64.23
7335;BME280;3708;42.632;23.378;2023-01-28T09:04:26;93956.00;;;1.82;64.46
7335;BME280;3708;42.632;23.378;2023-01-28T09:06:58;93959.06;;;1.89;64.46
7335;BME280;3708;42.632;23.378;2023-01-28T09:09:26;93970.25;;;2.08;63.25
7335;BME280;3708;42.632;23.378;2023-01-28T09:11:53;93968.34;;;2.19;63.42
7335;BME280;3708;42.632;23.378;2023-01-28T09:14:20;93956.25;;;2.62;61.39
7335;BME280;3708;42.632;23.378;2023-01-28T09:16:49;93962.84;;;1.68;64.35
7335;BME280;3708;42.632;23.378;2023-01-28T09:19:16;93968.19;;;1.77;64.43
7335;BME280;3708;42.632;23.378;2023-01-28T09:21:42;93972.50;;;2.15;62.49
7335;BME280;3708;42.632;23.378;2023-01-28T09:24:10;93968.88;;;1.53;63.80
7335;BME280;3708;42.632;23.378;2023-01-28T09:26:37;93956.16;;;1.96;63.51
7335;BME280;3708;42.632;23.378;2023-01-28T09:29:04;93963.53;;;2.07;62.24
7335;BME280;3708;42.632;23.378;2023-01-28T09:31:31;93963.03;;;2.34;63.13
7335;BME280;3708;42.632;23.378;2023-01-28T09:34:00;93968.50;;;2.56;61.77
7335;BME280;3708;42.632;23.378;2023-01-28T09:36:31;93960.91;;;2.65;61.50
7335;BME280;3708;42.632;23.378;2023-01-28T09:39:00;93953.75;;;1.71;63.43
7335;BME280;3708;42.632;23.378;2023-01-28T09:41:36;93967.31;;;1.86;63.80
7335;BME280;3708;42.632;23.378;2023-01-28T09:44:29;93961.78;;;2.26;63.53
7335;BME280;3708;42.632;23.378;2023-01-28T09:47:01;93958.44;;;1.69;63.60
7335;BME280;3708;42.632;23.378;2023-01-28T09:49:36;93964.63;;;2.01;64.20
7335;BME280;3708;42.632;23.378;2023-01-28T09:52:12;93965.25;;;1.88;63.79
7335;BME280;3708;42.632;23.378;2023-01-28T09:54:44;93967.47;;;1.66;63.90
7335;BME280;3708;42.632;23.378;2023-01-28T09:57:24;93967.31;;;1.14;65.91
7335;BME280;3708;42.632;23.378;2023-01-28T09:59:51;93977.84;;;2.23;63.53
7335;BME280;3708;42.632;23.378;2023-01-28T10:02:26;93966.72;;;2.75;62.29
7335;BME280;3708;42.632;23.378;2023-01-28T10:05:03;93967.38;;;2.10;63.68
7335;BME280;3708;42.632;23.378;2023-01-28T10:07:49;93966.25;;;1.59;65.05
7335;BME280;3708;42.632;23.378;2023-01-28T10:10:28;93957.63;;;1.73;64.98
7335;BME280;3708;42.632;23.378;2023-01-28T10:13:19;93961.28;;;1.67;64.63
7335;BME280;3708;42.632;23.378;2023-01-28T10:16:02;93953.75;;;2.04;64.85
7335;BME280;3708;42.632;23.378;2023-01-28T10:18:42;93951.53;;;2.21;64.54
7335;BME280;3708;42.632;23.378;2023-01-28T10:21:19;93960.63;;;1.85;64.58
7335;BME280;3708;42.632;23.378;2023-01-28T10:23:56;93961.91;;;2.16;63.80
7335;BME280;3708;42.632;23.378;2023-01-28T10:26:31;93955.47;;;1.85;64.22
7335;BME280;3708;42.632;23.378;2023-01-28T10:29:05;93958.69;;;1.72;65.10
7335;BME280;3708;42.632;23.378;2023-01-28T10:31:42;93966.38;;;1.38;65.27
7335;BME280;3708;42.632;23.378;2023-01-28T10:34:16;93961.97;;;1.44;65.90
7335;BME280;3708;42.632;23.378;2023-01-28T10:36:49;93954.84;;;1.98;65.32
7335;BME280;3708;42.632;23.378;2023-01-28T10:39:23;93967.88;;;2.12;65.43
7335;BME280;3708;42.632;23.378;2023-01-28T10:41:51;93964.66;;;2.25;64.33
7335;BME280;3708;42.632;23.378;2023-01-28T10:44:24;93960.63;;;1.51;66.25
7335;BME280;3708;42.632;23.378;2023-01-28T10:46:53;93950.53;;;2.17;64.81
7335;BME280;3708;42.632;23.378;2023-01-28T10:49:25;93952.44;;;2.07;65.13
7335;BME280;3708;42.632;23.378;2023-01-28T10:51:54;93958.41;;;1.40;66.13
7335;BME280;3708;42.632;23.378;2023-01-28T10:54:23;93946.75;;;1.76;64.84
7335;BME280;3708;42.632;23.378;2023-01-28T10:56:54;93963.28;;;1.75;64.86
7335;BME280;3708;42.632;23.378;2023-01-28T10:59:25;93965.25;;;1.54;65.97
7335;BME280;3708;42.632;23.378;2023-01-28T11:01:55;93965.53;;;1.87;64.52
7335;BME280;3708;42.632;23.378;2023-01-28T11:04:24;93979.00;;;1.45;64.90
7335;BME280;3708;42.632;23.378;2023-01-28T11:06:54;93961.47;;;1.42;65.63
7335;BME280;3708;42.632;23.378;2023-01-28T11:09:23;93955.50;;;1.46;65.03
7335;BME280;3708;42.632;23.378;2023-01-28T11:11:51;93944.44;;;1.41;65.81
7335;BME280;3708;42.632;23.378;2023-01-28T11:14:23;93960.06;;;1.60;65.50
7335;BME280;3708;42.632;23.378;2023-01-28T11:16:52;93943.50;;;1.66;65.68
7335;BME280;3708;42.632;23.378;2023-01-28T11:19:21;93949.69;;;1.31;65.98
7335;BME280;3708;42.632;23.378;2023-01-28T11:21:54;93954.75;;;2.08;64.06
7335;BME280;3708;42.632;23.378;2023-01-28T11:24:25;93949.75;;;1.60;64.77
7335;BME280;3708;42.632;23.378;2023-01-28T11:26:55;93953.34;;;2.21;62.75
7335;BME280;3708;42.632;23.378;2023-01-28T11:29:26;93945.50;;;2.02;63.63
7335;BME280;3708;42.632;23.378;2023-01-28T11:31:54;93941.81;;;2.61;61.98
7335;BME280;3708;42.632;23.378;2023-01-28T11:34:26;93946.66;;;1.86;63.81
7335;BME280;3708;42.632;23.378;2023-01-28T11:37:00;93957.69;;;1.68;64.22
7335;BME280;3708;42.632;23.378;2023-01-28T11:39:28;93958.00;;;1.90;64.02
7335;BME280;3708;42.632;23.378;2023-01-28T11:42:03;93944.78;;;1.68;64.33
7335;BME280;3708;42.632;23.378;2023-01-28T11:44:37;93938.69;;;1.49;64.09
7335;BME280;3708;42.632;23.378;2023-01-28T11:47:20;93942.50;;;1.90;64.18
7335;BME280;3708;42.632;23.378;2023-01-28T11:50:10;93959.13;;;2.08;63.81
7335;BME280;3708;42.632;23.378;2023-01-28T11:52:52;93941.59;;;1.76;64.20
7335;BME280;3708;42.632;23.378;2023-01-28T11:55:44;93940.41;;;1.92;63.49
7335;BME280;3708;42.632;23.378;2023-01-28T11:58:20;93950.47;;;1.65;63.64
7335;BME280;3708;42.632;23.378;2023-01-28T12:00:55;93930.16;;;1.53;64.29
7335;BME280;3708;42.632;23.378;2023-01-28T12:03:45;93937.44;;;1.80;63.88
7335;BME280;3708;42.632;23.378;2023-01-28T12:06:27;93956.63;;;1.69;64.10
7335;BME280;3708;42.632;23.378;2023-01-28T12:09:07;93956.28;;;1.81;62.73
7335;BME280;3708;42.632;23.378;2023-01-28T12:11:48;93963.78;;;1.77;63.85
7335;BME280;3708;42.632;23.378;2023-01-28T12:17:26;93958.69;;;1.72;62.87
7335;BME280;3708;42.632;23.378;2023-01-28T12:20:10;93962.63;;;1.93;62.44
7335;BME280;3708;42.632;23.378;2023-01-28T12:23:03;93957.78;;;2.15;61.96
7335;BME280;3708;42.632;23.378;2023-01-28T12:25:48;93941.47;;;1.91;62.02
7335;BME280;3708;42.632;23.378;2023-01-28T12:28:28;93950.47;;;2.22;61.88
7335;BME280;3708;42.632;23.378;2023-01-28T12:31:13;93957.41;;;2.51;61.21
7335;BME280;3708;42.632;23.378;2023-01-28T12:33:59;93952.66;;;2.39;61.46
7335;BME280;3708;42.632;23.378;2023-01-28T12:36:41;93959.16;;;2.31;61.71
7335;BME280;3708;42.632;23.378;2023-01-28T12:39:17;93954.44;;;2.15;61.03
7335;BME280;3708;42.632;23.378;2023-01-28T12:41:53;93969.44;;;1.79;62.86
7335;BME280;3708;42.632;23.378;2023-01-28T12:44:24;93956.22;;;2.43;61.65
7335;BME280;3708;42.632;23.378;2023-01-28T12:46:56;93957.19;;;2.94;60.23
7335;BME280;3708;42.632;23.378;2023-01-28T12:49:28;93957.34;;;2.79;61.18
7335;BME280;3708;42.632;23.378;2023-01-28T12:52:02;93966.44;;;2.29;61.92
7335;BME280;3708;42.632;23.378;2023-01-28T12:54:35;93967.41;;;2.81;60.51
7335;BME280;3708;42.632;23.378;2023-01-28T12:57:07;93978.06;;;2.79;60.99
7335;BME280;3708;42.632;23.378;2023-01-28T12:59:39;93975.13;;;2.86;60.55
7335;BME280;3708;42.632;23.378;2023-01-28T13:02:20;93977.19;;;2.89;60.35
7335;BME280;3708;42.632;23.378;2023-01-28T13:04:59;93985.63;;;2.23;61.97
7335;BME280;3708;42.632;23.378;2023-01-28T13:07:33;93984.16;;;2.41;62.07
7335;BME280;3708;42.632;23.378;2023-01-28T13:10:04;93974.44;;;2.99;60.85
7335;BME280;3708;42.632;23.378;2023-01-28T13:12:34;93976.94;;;2.09;62.91
7335;BME280;3708;42.632;23.378;2023-01-28T13:15:09;93988.69;;;2.25;61.88
7335;BME280;3708;42.632;23.378;2023-01-28T13:17:36;94000.88;;;1.91;62.76
7335;BME280;3708;42.632;23.378;2023-01-28T13:20:13;93987.53;;;1.79;63.77
7335;BME280;3708;42.632;23.378;2023-01-28T13:22:43;93991.03;;;1.93;63.21
7335;BME280;3708;42.632;23.378;2023-01-28T13:25:20;93990.53;;;1.91;63.27
7335;BME280;3708;42.632;23.378;2023-01-28T13:27:57;93995.00;;;2.14;62.80
7335;BME280;3708;42.632;23.378;2023-01-28T13:30:27;93995.38;;;2.26;62.15
7335;BME280;3708;42.632;23.378;2023-01-28T13:32:55;93981.94;;;2.01;62.02
7335;BME280;3708;42.632;23.378;2023-01-28T13:35:31;94009.22;;;2.41;61.82
7335;BME280;3708;42.632;23.378;2023-01-28T13:38:06;93995.53;;;2.64;61.57
7335;BME280;3708;42.632;23.378;2023-01-28T13:40:34;94000.06;;;2.24;62.50
7335;BME280;3708;42.632;23.378;2023-01-28T13:43:05;93997.69;;;2.57;61.59
7335;BME280;3708;42.632;23.378;2023-01-28T13:45:32;93996.97;;;2.75;61.38
7335;BME280;3708;42.632;23.378;2023-01-28T13:50:51;94016.69;;;1.85;63.18